Time,TemperatureF,DewpointF,PressureIn,WindDirection,WindDirectionDegrees,WindSpeedMPH,WindSpeedGustMPH,Humidity,HourlyPrecipIn,Conditions,Clouds,dailyrainin,SoftwareType,DateUTC
2013-03-05 00:01:00,23.9,14.9,30.24,East,90,3.1,4.0,68,0.00,,,0.00,WUHU216HW,2013-03-05 05:01:00,
2013-03-05 00:06:00,24.1,15.0,30.24,East,90,3.8,4.0,68,0.00,,,0.00,WUHU216HW,2013-03-05 05:06:00,
2013-03-05 00:11:00,24.1,15.0,30.24,ESE,113,3.4,4.0,68,0.00,,,0.00,WUHU216HW,2013-03-05 05:11:00,
2013-03-05 00:16:00,23.9,14.9,30.24,ESE,113,2.7,3.6,68,0.00,,,0.00,WUHU216HW,2013-03-05 05:16:00,
2013-03-05 00:21:00,23.8,14.7,30.24,East,90,3.1,3.4,68,0.00,,,0.00,WUHU216HW,2013-03-05 05:21:00,
2013-03-05 00:26:00,23.8,14.7,30.24,ESE,113,1.8,3.4,68,0.00,,,0.00,WUHU216HW,2013-03-05 05:26:00,
2013-03-05 00:31:00,23.4,14.4,30.24,ESE,113,1.8,3.1,68,0.00,,,0.00,WUHU216HW,2013-03-05 05:31:00,
2013-03-05 00:36:00,23.2,14.2,30.23,ESE,113,3.4,3.4,68,0.00,,,0.00,WUHU216HW,2013-03-05 05:36:00,
2013-03-05 00:41:00,23.0,14.4,30.23,East,90,2.7,3.6,69,0.00,,,0.00,WUHU216HW,2013-03-05 05:41:00,
2013-03-05 00:46:00,23.2,14.6,30.23,East,90,3.8,4.5,69,0.00,,,0.00,WUHU216HW,2013-03-05 05:46:00,
2013-03-05 00:51:00,23.2,14.6,30.23,East,90,4.0,4.5,69,0.00,,,0.00,WUHU216HW,2013-03-05 05:51:00,
2013-03-05 00:56:00,23.2,14.6,30.23,East,90,3.8,4.3,69,0.00,,,0.00,WUHU216HW,2013-03-05 05:56:00,
2013-03-05 01:01:00,23.0,14.4,30.23,ESE,113,3.4,4.3,69,0.00,,,0.00,WUHU216HW,2013-03-05 06:01:00,
2013-03-05 01:06:00,23.0,14.4,30.22,East,90,4.7,4.7,69,0.00,,,0.00,WUHU216HW,2013-03-05 06:06:00,
2013-03-05 01:11:00,23.0,14.0,30.22,ESE,113,4.3,4.7,68,0.00,,,0.00,WUHU216HW,2013-03-05 06:11:00,
2013-03-05 01:16:00,23.0,14.0,30.22,East,90,4.7,4.7,68,0.00,,,0.00,WUHU216HW,2013-03-05 06:16:00,
2013-03-05 01:21:00,23.0,14.0,30.21,ENE,68,4.7,4.7,68,0.00,,,0.00,WUHU216HW,2013-03-05 06:21:00,
2013-03-05 01:26:00,23.0,14.0,30.21,ESE,113,3.4,4.7,68,0.00,,,0.00,WUHU216HW,2013-03-05 06:26:00,
2013-03-05 01:31:00,23.0,14.0,30.21,ESE,113,7.2,7.2,68,0.00,,,0.00,WUHU216HW,2013-03-05 06:31:00,
2013-03-05 01:36:00,23.0,14.4,30.21,ESE,113,8.1,8.1,69,0.00,,,0.00,WUHU216HW,2013-03-05 06:36:00,
2013-03-05 01:41:00,23.4,14.8,30.21,ESE,113,6.5,8.1,69,0.00,,,0.00,WUHU216HW,2013-03-05 06:41:00,
2013-03-05 01:46:00,23.4,14.8,30.21,ESE,113,5.4,6.9,69,0.00,,,0.00,WUHU216HW,2013-03-05 06:46:00,
2013-03-05 01:51:00,23.4,14.8,30.21,ESE,113,7.4,9.2,69,0.00,,,0.00,WUHU216HW,2013-03-05 06:51:00,
2013-03-05 01:56:00,23.8,14.7,30.21,ESE,113,5.8,9.8,68,0.00,,,0.00,WUHU216HW,2013-03-05 06:56:00,
2013-03-05 02:01:00,23.9,15.2,30.21,ESE,113,6.5,9.8,69,0.00,,,0.00,WUHU216HW,2013-03-05 07:01:00,
2013-03-05 02:06:00,23.8,15.0,30.21,ESE,113,6.9,8.1,69,0.00,,,0.00,WUHU216HW,2013-03-05 07:06:00,
2013-03-05 02:11:00,23.6,14.9,30.21,East,90,4.3,6.9,69,0.00,,,0.00,WUHU216HW,2013-03-05 07:11:00,
2013-03-05 02:16:00,23.4,14.8,30.21,ESE,113,4.7,6.3,69,0.00,,,0.00,WUHU216HW,2013-03-05 07:16:00,
2013-03-05 02:21:00,23.4,14.8,30.20,East,90,5.8,5.8,69,0.00,,,0.00,WUHU216HW,2013-03-05 07:21:00,
2013-03-05 02:26:00,23.4,14.8,30.20,ESE,113,5.8,6.3,69,0.00,,,0.00,WUHU216HW,2013-03-05 07:26:00,
2013-03-05 02:31:00,23.4,14.8,30.20,ESE,113,4.3,6.3,69,0.00,,,0.00,WUHU216HW,2013-03-05 07:31:00,
2013-03-05 02:36:00,23.2,14.6,30.20,East,90,4.0,5.8,69,0.00,,,0.00,WUHU216HW,2013-03-05 07:36:00,
2013-03-05 02:41:00,23.0,14.4,30.20,ESE,113,4.0,5.4,69,0.00,,,0.00,WUHU216HW,2013-03-05 07:41:00,
2013-03-05 02:46:00,23.0,14.0,30.19,ESE,113,4.7,4.7,68,0.00,,,0.00,WUHU216HW,2013-03-05 07:46:00,
2013-03-05 02:51:00,22.9,13.9,30.20,ESE,113,3.6,5.4,68,0.00,,,0.00,WUHU216HW,2013-03-05 07:51:00,
2013-03-05 02:56:00,22.9,14.2,30.19,ENE,68,3.1,5.4,69,0.00,,,0.00,WUHU216HW,2013-03-05 07:56:00,
2013-03-05 03:01:00,22.7,14.0,30.19,NE,45,4.0,4.7,69,0.00,,,0.00,WUHU216HW,2013-03-05 08:01:00,
2013-03-05 03:06:00,22.1,13.5,30.19,NE,45,3.4,4.7,69,0.00,,,0.00,WUHU216HW,2013-03-05 08:06:00,
2013-03-05 03:11:00,21.8,13.5,30.19,NE,45,4.7,4.9,70,0.00,,,0.00,WUHU216HW,2013-03-05 08:11:00,
2013-03-05 03:16:00,21.6,14.0,30.19,ENE,68,5.1,5.1,72,0.00,,,0.00,WUHU216HW,2013-03-05 08:16:00,
2013-03-05 03:21:00,21.4,13.8,30.18,NE,45,6.0,6.3,72,0.00,,,0.00,WUHU216HW,2013-03-05 08:21:00,
2013-03-05 03:26:00,21.4,13.8,30.18,NE,45,6.9,6.9,72,0.00,,,0.00,WUHU216HW,2013-03-05 08:26:00,
2013-03-05 03:31:00,21.6,14.0,30.18,ENE,68,6.0,6.9,72,0.00,,,0.00,WUHU216HW,2013-03-05 08:31:00,
2013-03-05 03:36:00,21.6,14.0,30.17,ENE,68,5.8,8.5,72,0.00,,,0.00,WUHU216HW,2013-03-05 08:36:00,
2013-03-05 03:41:00,21.6,14.0,30.17,East,90,4.0,8.5,72,0.00,,,0.00,WUHU216HW,2013-03-05 08:41:00,
2013-03-05 03:46:00,21.6,14.0,30.17,East,90,5.4,6.7,72,0.00,,,0.00,WUHU216HW,2013-03-05 08:46:00,
2013-03-05 03:51:00,21.8,14.1,30.16,ENE,68,3.4,5.8,72,0.00,,,0.00,WUHU216HW,2013-03-05 08:51:00,
2013-03-05 03:56:00,21.8,14.1,30.16,East,90,3.6,6.3,72,0.00,,,0.00,WUHU216HW,2013-03-05 08:56:00,
2013-03-05 04:01:00,21.8,14.1,30.16,ESE,113,5.1,6.3,72,0.00,,,0.00,WUHU216HW,2013-03-05 09:01:00,
2013-03-05 04:06:00,21.8,13.8,30.16,ESE,113,4.9,6.3,71,0.00,,,0.00,WUHU216HW,2013-03-05 09:06:00,
2013-03-05 04:11:00,22.0,14.3,30.16,ESE,113,4.7,7.2,72,0.00,,,0.00,WUHU216HW,2013-03-05 09:11:00,
2013-03-05 04:16:00,22.0,14.0,30.16,East,90,6.3,7.6,71,0.00,,,0.00,WUHU216HW,2013-03-05 09:16:00,
2013-03-05 04:21:00,22.0,14.0,30.16,ESE,113,8.1,8.3,71,0.00,,,0.00,WUHU216HW,2013-03-05 09:21:00,
2013-03-05 04:26:00,22.1,14.1,30.16,East,90,4.0,8.3,71,0.00,,,0.00,WUHU216HW,2013-03-05 09:26:00,
2013-03-05 04:31:00,22.0,14.0,30.16,SE,135,4.7,6.3,71,0.00,,,0.00,WUHU216HW,2013-03-05 09:31:00,
2013-03-05 04:36:00,22.0,14.0,30.16,ESE,113,4.9,6.3,71,0.00,,,0.00,WUHU216HW,2013-03-05 09:36:00,
2013-03-05 04:41:00,21.8,13.8,30.16,ESE,113,6.3,6.3,71,0.00,,,0.00,WUHU216HW,2013-03-05 09:41:00,
2013-03-05 04:46:00,21.6,14.0,30.16,ENE,68,4.0,6.3,72,0.00,,,0.00,WUHU216HW,2013-03-05 09:46:00,
2013-03-05 04:51:00,21.6,14.0,30.15,NE,45,4.0,7.2,72,0.00,,,0.00,WUHU216HW,2013-03-05 09:51:00,
2013-03-05 04:56:00,21.6,14.2,30.16,ENE,68,5.6,7.6,73,0.00,,,0.00,WUHU216HW,2013-03-05 09:56:00,
2013-03-05 05:01:00,21.6,14.2,30.16,ESE,113,4.3,7.6,73,0.00,,,0.00,WUHU216HW,2013-03-05 10:01:00,
2013-03-05 05:06:00,21.6,14.2,30.16,East,90,4.7,7.6,73,0.00,,,0.00,WUHU216HW,2013-03-05 10:06:00,
2013-03-05 05:11:00,21.4,14.0,30.16,ESE,113,4.7,7.6,73,0.00,,,0.00,WUHU216HW,2013-03-05 10:11:00,
2013-03-05 05:16:00,21.4,14.4,30.16,NE,45,5.4,6.9,74,0.00,,,0.00,WUHU216HW,2013-03-05 10:16:00,
2013-03-05 05:21:00,21.6,14.6,30.16,ENE,68,6.3,8.3,74,0.00,,,0.00,WUHU216HW,2013-03-05 10:21:00,
2013-03-05 05:26:00,21.6,14.6,30.16,ENE,68,9.8,9.8,74,0.00,,,0.00,WUHU216HW,2013-03-05 10:26:00,
2013-03-05 05:31:00,21.8,14.8,30.16,ENE,68,8.9,9.8,74,0.00,,,0.00,WUHU216HW,2013-03-05 10:31:00,
2013-03-05 05:36:00,22.0,15.0,30.16,ENE,68,7.4,9.8,74,0.00,,,0.00,WUHU216HW,2013-03-05 10:36:00,
2013-03-05 05:41:00,21.8,14.8,30.16,ENE,68,6.0,9.8,74,0.00,,,0.00,WUHU216HW,2013-03-05 10:41:00,
2013-03-05 05:46:00,22.0,15.0,30.16,ENE,68,8.1,10.5,74,0.00,,,0.00,WUHU216HW,2013-03-05 10:46:00,
2013-03-05 05:51:00,22.0,15.0,30.16,East,90,7.8,12.3,74,0.00,,,0.00,WUHU216HW,2013-03-05 10:51:00,
2013-03-05 05:56:00,21.8,14.8,30.16,East,90,8.1,12.3,74,0.00,,,0.00,WUHU216HW,2013-03-05 10:56:00,
2013-03-05 06:01:00,21.8,14.8,30.15,SE,135,8.5,9.2,74,0.00,,,0.00,WUHU216HW,2013-03-05 11:01:00,
2013-03-05 06:06:00,21.8,14.8,30.16,East,90,11.2,11.2,74,0.00,,,0.00,WUHU216HW,2013-03-05 11:06:00,
2013-03-05 06:11:00,21.6,14.6,30.16,ENE,68,10.3,11.2,74,0.00,,,0.00,WUHU216HW,2013-03-05 11:11:00,
2013-03-05 06:16:00,21.8,14.8,30.15,East,90,10.7,11.9,74,0.00,,,0.00,WUHU216HW,2013-03-05 11:16:00,
2013-03-05 06:21:00,21.8,14.8,30.15,ESE,113,11.6,11.9,74,0.00,,,0.00,WUHU216HW,2013-03-05 11:21:00,
2013-03-05 06:26:00,21.8,14.8,30.16,ESE,113,6.9,12.3,74,0.00,,,0.00,WUHU216HW,2013-03-05 11:26:00,
2013-03-05 06:31:00,21.8,14.8,30.16,East,90,8.9,12.8,74,0.00,,,0.00,WUHU216HW,2013-03-05 11:31:00,
2013-03-05 06:36:00,21.8,14.8,30.15,SE,135,6.5,12.8,74,0.00,,,0.00,WUHU216HW,2013-03-05 11:36:00,
2013-03-05 06:41:00,22.0,15.2,30.15,ENE,68,9.2,10.1,75,0.00,,,0.00,WUHU216HW,2013-03-05 11:41:00,
2013-03-05 06:46:00,22.0,15.0,30.15,ENE,68,11.4,11.4,74,0.00,,,0.00,WUHU216HW,2013-03-05 11:46:00,
2013-03-05 06:51:00,22.1,15.1,30.14,ENE,68,8.3,12.5,74,0.00,,,0.00,WUHU216HW,2013-03-05 11:51:00,
2013-03-05 06:56:00,22.3,14.9,30.14,ESE,113,8.1,12.8,73,0.00,,,0.00,WUHU216HW,2013-03-05 11:56:00,
2013-03-05 07:02:00,22.5,15.1,30.13,ENE,68,9.8,12.8,73,0.00,,,0.00,WUHU216HW,2013-03-05 12:02:00,
2013-03-05 07:07:00,22.7,15.3,30.13,ESE,113,11.4,11.6,73,0.00,,,0.00,WUHU216HW,2013-03-05 12:07:00,
2013-03-05 07:12:00,22.7,15.3,30.13,East,90,11.2,11.6,73,0.00,,,0.00,WUHU216HW,2013-03-05 12:12:00,
2013-03-05 07:17:00,22.7,15.3,30.13,ESE,113,14.3,14.3,73,0.00,,,0.00,WUHU216HW,2013-03-05 12:17:00,
2013-03-05 07:22:00,22.7,15.3,30.13,ENE,68,8.7,14.3,73,0.00,,,0.00,WUHU216HW,2013-03-05 12:22:00,
2013-03-05 07:27:00,22.7,15.3,30.14,ESE,113,11.2,11.2,73,0.00,,,0.00,WUHU216HW,2013-03-05 12:27:00,
2013-03-05 07:32:00,22.9,15.5,30.14,East,90,10.5,14.3,73,0.00,,,0.00,WUHU216HW,2013-03-05 12:32:00,
2013-03-05 07:37:00,23.0,15.4,30.14,ENE,68,11.0,14.3,72,0.00,,,0.00,WUHU216HW,2013-03-05 12:37:00,
2013-03-05 07:42:00,23.0,15.4,30.13,ENE,68,12.1,13.4,72,0.00,,,0.00,WUHU216HW,2013-03-05 12:42:00,
2013-03-05 07:47:00,23.2,15.6,30.14,East,90,11.6,15.2,72,0.00,,,0.00,WUHU216HW,2013-03-05 12:47:00,
2013-03-05 07:52:00,23.4,16.0,30.15,ESE,113,10.1,15.2,73,0.00,,,0.00,WUHU216HW,2013-03-05 12:52:00,
2013-03-05 07:57:00,23.4,16.0,30.15,ESE,113,9.8,14.1,73,0.00,,,0.00,WUHU216HW,2013-03-05 12:57:00,
2013-03-05 08:02:00,23.6,16.2,30.14,ENE,68,11.4,13.4,73,0.00,,,0.00,WUHU216HW,2013-03-05 13:02:00,
2013-03-05 08:07:00,23.9,16.5,30.14,East,90,13.2,13.4,73,0.00,,,0.00,WUHU216HW,2013-03-05 13:07:00,
2013-03-05 08:12:00,24.1,17.0,30.14,East,90,12.8,14.3,74,0.00,,,0.00,WUHU216HW,2013-03-05 13:12:00,
2013-03-05 08:17:00,24.3,17.2,30.13,ENE,68,14.1,14.3,74,0.00,,,0.00,WUHU216HW,2013-03-05 13:17:00,
2013-03-05 08:22:00,24.5,17.4,30.13,ENE,68,11.2,14.1,74,0.00,,,0.00,WUHU216HW,2013-03-05 13:22:00,
2013-03-05 08:27:00,24.7,17.6,30.13,East,90,8.7,14.8,74,0.00,,,0.00,WUHU216HW,2013-03-05 13:27:00,
2013-03-05 08:32:00,24.8,17.6,30.13,ENE,68,16.1,16.1,74,0.00,,,0.00,WUHU216HW,2013-03-05 13:32:00,
2013-03-05 08:37:00,25.0,17.8,30.12,ENE,68,15.0,17.2,74,0.00,,,0.00,WUHU216HW,2013-03-05 13:37:00,
2013-03-05 08:42:00,25.2,17.7,30.12,ENE,68,16.3,17.2,73,0.00,,,0.00,WUHU216HW,2013-03-05 13:42:00,
2013-03-05 08:47:00,25.4,18.2,30.13,East,90,14.1,16.3,74,0.00,,,0.00,WUHU216HW,2013-03-05 13:47:00,
2013-03-05 08:52:00,25.4,17.9,30.13,ENE,68,19.2,19.2,73,0.00,,,0.00,WUHU216HW,2013-03-05 13:52:00,
2013-03-05 08:57:00,25.6,18.1,30.13,ESE,113,10.7,19.2,73,0.00,,,0.00,WUHU216HW,2013-03-05 13:57:00,
2013-03-05 09:02:00,25.7,18.3,30.12,ENE,68,14.3,17.9,73,0.00,,,0.00,WUHU216HW,2013-03-05 14:02:00,
2013-03-05 09:07:00,25.9,18.1,30.12,ENE,68,18.3,18.3,72,0.00,,,0.00,WUHU216HW,2013-03-05 14:07:00,
2013-03-05 09:12:00,26.1,18.3,30.12,ENE,68,13.4,18.3,72,0.00,,,0.00,WUHU216HW,2013-03-05 14:12:00,
2013-03-05 09:17:00,26.3,18.5,30.12,ENE,68,13.0,16.3,72,0.00,,,0.00,WUHU216HW,2013-03-05 14:17:00,
2013-03-05 09:22:00,26.5,18.6,30.12,ESE,113,18.6,18.6,72,0.00,,,0.00,WUHU216HW,2013-03-05 14:22:00,
2013-03-05 09:27:00,26.5,18.6,30.12,ENE,68,16.8,18.6,72,0.00,,,0.00,WUHU216HW,2013-03-05 14:27:00,
2013-03-05 09:32:00,26.3,18.5,30.12,ESE,113,12.5,16.8,72,0.00,,,0.00,WUHU216HW,2013-03-05 14:32:00,
2013-03-05 09:37:00,26.1,18.3,30.12,NE,45,12.1,16.3,72,0.00,,,0.00,WUHU216HW,2013-03-05 14:37:00,
2013-03-05 09:42:00,26.1,18.3,30.12,ENE,68,14.3,16.3,72,0.00,,,0.00,WUHU216HW,2013-03-05 14:42:00,
2013-03-05 09:47:00,26.3,18.5,30.12,ENE,68,15.7,15.7,72,0.00,,,0.00,WUHU216HW,2013-03-05 14:47:00,
2013-03-05 09:52:00,26.6,18.8,30.11,ENE,68,13.2,15.7,72,0.00,,,0.00,WUHU216HW,2013-03-05 14:52:00,
2013-03-05 09:57:00,26.6,18.8,30.11,ENE,68,13.2,13.2,72,0.00,,,0.00,WUHU216HW,2013-03-05 14:57:00,
2013-03-05 10:05:00,27.2,19.0,30.11,ENE,68,13.4,17.9,71,0.00,,,0.00,WUHU216HW,2013-03-05 15:05:00,
2013-03-05 10:10:00,27.0,19.2,30.10,East,90,12.3,17.9,72,0.00,,,0.00,WUHU216HW,2013-03-05 15:10:00,
2013-03-05 10:15:00,27.2,19.0,30.09,East,90,15.0,15.4,71,0.00,,,0.00,WUHU216HW,2013-03-05 15:15:00,
2013-03-05 10:20:00,27.0,19.2,30.10,ESE,113,12.1,15.4,72,0.00,,,0.00,WUHU216HW,2013-03-05 15:20:00,
2013-03-05 10:25:00,27.4,19.5,30.09,SE,135,10.7,15.0,72,0.00,,,0.00,WUHU216HW,2013-03-05 15:25:00,
2013-03-05 10:30:00,27.9,19.7,30.09,ENE,68,13.2,13.2,71,0.00,,,0.00,WUHU216HW,2013-03-05 15:30:00,
2013-03-05 10:35:00,27.5,19.1,30.09,ENE,68,14.3,14.5,70,0.00,,,0.00,WUHU216HW,2013-03-05 15:35:00,
2013-03-05 10:40:00,27.4,19.2,30.09,ENE,68,13.2,19.2,71,0.00,,,0.00,WUHU216HW,2013-03-05 15:40:00,
2013-03-05 10:45:00,27.7,19.9,30.09,ESE,113,14.5,19.2,72,0.00,,,0.00,WUHU216HW,2013-03-05 15:45:00,
2013-03-05 10:50:00,28.1,19.9,30.10,ENE,68,9.6,16.3,71,0.00,,,0.00,WUHU216HW,2013-03-05 15:50:00,
2013-03-05 10:55:00,28.4,20.0,30.11,ESE,113,14.8,19.0,70,0.00,,,0.00,WUHU216HW,2013-03-05 15:55:00,
2013-03-05 11:00:00,28.6,19.8,30.11,ESE,113,17.4,20.1,69,0.00,,,0.00,WUHU216HW,2013-03-05 16:00:00,
2013-03-05 11:05:00,28.6,20.2,30.10,ESE,113,8.5,20.1,70,0.00,,,0.00,WUHU216HW,2013-03-05 16:05:00,
2013-03-05 11:10:00,28.6,20.2,30.10,East,90,16.1,17.4,70,0.00,,,0.00,WUHU216HW,2013-03-05 16:10:00,
2013-03-05 11:15:00,28.8,20.4,30.11,East,90,9.2,16.3,70,0.00,,,0.00,WUHU216HW,2013-03-05 16:15:00,
2013-03-05 11:20:00,28.8,20.4,30.10,ESE,113,13.6,17.9,70,0.00,,,0.00,WUHU216HW,2013-03-05 16:20:00,
2013-03-05 11:25:00,28.4,20.0,30.10,ESE,113,13.2,17.9,70,0.00,,,0.00,WUHU216HW,2013-03-05 16:25:00,
2013-03-05 11:30:00,28.4,20.0,30.11,ESE,113,15.9,17.4,70,0.00,,,0.00,WUHU216HW,2013-03-05 16:30:00,
2013-03-05 11:35:00,28.8,20.4,30.11,East,90,10.5,15.9,70,0.00,,,0.00,WUHU216HW,2013-03-05 16:35:00,
2013-03-05 11:40:00,28.8,20.0,30.11,ENE,68,14.3,14.3,69,0.00,,,0.00,WUHU216HW,2013-03-05 16:40:00,
2013-03-05 11:45:00,28.8,20.4,30.11,ESE,113,16.6,16.6,70,0.00,,,0.00,WUHU216HW,2013-03-05 16:45:00,
2013-03-05 11:50:00,29.0,20.1,30.11,ENE,68,17.2,17.2,69,0.00,,,0.00,WUHU216HW,2013-03-05 16:50:00,
2013-03-05 11:55:00,28.8,20.4,30.10,ENE,68,12.1,17.2,70,0.00,,,0.00,WUHU216HW,2013-03-05 16:55:00,
2013-03-05 12:00:00,29.2,20.6,30.10,NE,45,10.3,14.1,70,0.00,,,0.00,WUHU216HW,2013-03-05 17:00:00,
2013-03-05 12:05:00,28.8,20.4,30.10,NE,45,10.5,14.1,70,0.00,,,0.00,WUHU216HW,2013-03-05 17:05:00,
2013-03-05 12:10:00,29.0,20.1,30.10,East,90,13.4,13.4,69,0.00,,,0.00,WUHU216HW,2013-03-05 17:10:00,
2013-03-05 12:15:00,29.0,20.1,30.10,ENE,68,11.4,15.4,69,0.00,,,0.00,WUHU216HW,2013-03-05 17:15:00,
2013-03-05 12:20:00,29.2,20.3,30.09,East,90,14.5,15.4,69,0.00,,,0.00,WUHU216HW,2013-03-05 17:20:00,
2013-03-05 12:25:00,29.2,20.6,30.09,ENE,68,13.2,14.5,70,0.00,,,0.00,WUHU216HW,2013-03-05 17:25:00,
2013-03-05 12:30:00,29.0,20.1,30.09,ENE,68,12.3,15.0,69,0.00,,,0.00,WUHU216HW,2013-03-05 17:30:00,
2013-03-05 12:35:00,29.2,20.3,30.09,East,90,11.4,15.0,69,0.00,,,0.00,WUHU216HW,2013-03-05 17:35:00,
2013-03-05 12:40:00,29.3,20.4,30.08,East,90,15.0,15.0,69,0.00,,,0.00,WUHU216HW,2013-03-05 17:40:00,
2013-03-05 12:45:00,29.2,20.3,30.08,East,90,13.4,15.2,69,0.00,,,0.00,WUHU216HW,2013-03-05 17:45:00,
2013-03-05 12:50:00,29.3,20.1,30.08,ENE,68,9.8,15.2,68,0.00,,,0.00,WUHU216HW,2013-03-05 17:50:00,
2013-03-05 12:55:00,29.5,20.6,30.08,East,90,10.3,12.8,69,0.00,,,0.00,WUHU216HW,2013-03-05 17:55:00,
2013-03-05 13:00:00,29.9,20.9,30.08,ENE,68,11.9,12.8,69,0.00,,,0.00,WUHU216HW,2013-03-05 18:00:00,
2013-03-05 13:05:00,30.1,21.1,30.08,East,90,9.6,11.9,69,0.00,,,0.00,WUHU216HW,2013-03-05 18:05:00,
2013-03-05 13:10:00,30.1,20.7,30.08,ENE,68,8.9,12.8,68,0.00,,,0.00,WUHU216HW,2013-03-05 18:10:00,
2013-03-05 13:15:00,30.2,20.9,30.07,ENE,68,12.5,12.8,68,0.00,,,0.00,WUHU216HW,2013-03-05 18:15:00,
2013-03-05 13:20:00,30.4,21.1,30.06,NE,45,13.0,13.0,68,0.00,,,0.00,WUHU216HW,2013-03-05 18:20:00,
2013-03-05 13:25:00,30.4,21.4,30.06,ENE,68,11.2,17.2,69,0.00,,,0.00,WUHU216HW,2013-03-05 18:25:00,
2013-03-05 13:30:00,30.8,21.8,30.06,ENE,68,9.4,17.2,69,0.00,,,0.00,WUHU216HW,2013-03-05 18:30:00,
2013-03-05 13:35:00,31.1,22.1,30.05,ENE,68,12.3,16.3,69,0.00,,,0.00,WUHU216HW,2013-03-05 18:35:00,
2013-03-05 13:40:00,31.3,22.0,30.05,NE,45,16.3,16.3,68,0.00,,,0.00,WUHU216HW,2013-03-05 18:40:00,
2013-03-05 13:45:00,31.3,22.0,30.04,East,90,8.9,16.3,68,0.00,,,0.00,WUHU216HW,2013-03-05 18:45:00,
2013-03-05 13:50:00,31.7,22.0,30.03,East,90,14.1,15.0,67,0.00,,,0.00,WUHU216HW,2013-03-05 18:50:00,
2013-03-05 13:55:00,31.9,22.5,30.03,ENE,68,8.3,14.1,68,0.00,,,0.00,WUHU216HW,2013-03-05 18:55:00,
2013-03-05 14:00:00,32.2,22.9,30.03,ENE,68,14.8,15.7,68,0.00,,,0.00,WUHU216HW,2013-03-05 19:00:00,
2013-03-05 14:05:00,32.2,22.9,30.03,East,90,9.2,15.7,68,0.00,,,0.00,WUHU216HW,2013-03-05 19:05:00,
2013-03-05 14:10:00,32.4,23.1,30.03,ENE,68,10.7,15.4,68,0.00,,,0.00,WUHU216HW,2013-03-05 19:10:00,
2013-03-05 14:15:00,32.6,23.1,30.03,ESE,113,13.4,18.6,68,0.00,,,0.00,WUHU216HW,2013-03-05 19:15:00,
2013-03-05 14:20:00,32.6,22.8,30.02,East,90,12.1,18.6,67,0.00,,,0.00,WUHU216HW,2013-03-05 19:20:00,
2013-03-05 14:25:00,32.8,23.3,30.02,ENE,68,10.7,15.0,68,0.00,,,0.00,WUHU216HW,2013-03-05 19:25:00,
2013-03-05 14:30:00,32.4,23.1,30.01,NE,45,11.9,16.1,68,0.00,,,0.00,WUHU216HW,2013-03-05 19:30:00,
2013-03-05 14:35:00,32.6,23.1,30.01,ENE,68,11.4,16.1,68,0.00,,,0.00,WUHU216HW,2013-03-05 19:35:00,
2013-03-05 14:40:00,32.6,23.5,30.01,NE,45,11.4,15.9,69,0.00,,,0.00,WUHU216HW,2013-03-05 19:40:00,
2013-03-05 14:45:00,32.4,23.8,30.01,ENE,68,16.6,18.6,70,0.00,,,0.00,WUHU216HW,2013-03-05 19:45:00,
2013-03-05 14:50:00,32.0,23.0,30.00,NE,45,20.4,20.4,69,0.00,,,0.00,WUHU216HW,2013-03-05 19:50:00,
2013-03-05 14:55:00,32.0,23.4,30.00,NE,45,13.6,21.3,70,0.00,,,0.00,WUHU216HW,2013-03-05 19:55:00,
2013-03-05 15:00:00,32.6,23.9,30.00,NE,45,9.2,21.3,70,0.00,,,0.00,WUHU216HW,2013-03-05 20:00:00,
2013-03-05 15:05:00,32.8,23.7,30.00,NE,45,12.3,17.2,69,0.00,,,0.00,WUHU216HW,2013-03-05 20:05:00,
2013-03-05 15:10:00,32.6,23.1,30.00,NE,45,18.3,18.3,68,0.00,,,0.00,WUHU216HW,2013-03-05 20:10:00,
2013-03-05 15:15:00,32.4,23.1,30.00,NE,45,19.0,19.0,68,0.00,,,0.00,WUHU216HW,2013-03-05 20:15:00,
2013-03-05 15:20:00,32.4,23.1,30.00,NE,45,22.8,23.3,68,0.00,,,0.00,WUHU216HW,2013-03-05 20:20:00,
2013-03-05 15:25:00,32.6,23.1,30.00,East,90,12.5,23.3,68,0.00,,,0.00,WUHU216HW,2013-03-05 20:25:00,
2013-03-05 15:30:00,32.4,23.1,30.00,ENE,68,12.5,21.5,68,0.00,,,0.00,WUHU216HW,2013-03-05 20:30:00,
2013-03-05 15:35:00,32.4,23.1,30.00,NE,45,14.1,21.5,68,0.00,,,0.00,WUHU216HW,2013-03-05 20:35:00,
2013-03-05 15:40:00,32.4,22.7,30.01,ENE,68,15.0,19.2,67,0.00,,,0.00,WUHU216HW,2013-03-05 20:40:00,
2013-03-05 15:45:00,32.6,23.1,30.01,NE,45,10.3,19.2,68,0.00,,,0.00,WUHU216HW,2013-03-05 20:45:00,
2013-03-05 15:50:00,32.8,23.0,30.01,NE,45,15.9,15.9,67,0.00,,,0.00,WUHU216HW,2013-03-05 20:50:00,
2013-03-05 15:55:00,32.8,23.0,30.00,ENE,68,18.8,18.8,67,0.00,,,0.00,WUHU216HW,2013-03-05 20:55:00,
2013-03-05 16:00:00,32.8,23.0,30.01,ENE,68,10.5,18.8,67,0.00,,,0.00,WUHU216HW,2013-03-05 21:00:00,
2013-03-05 16:05:00,32.8,23.0,30.00,NE,45,13.9,17.9,67,0.00,,,0.00,WUHU216HW,2013-03-05 21:05:00,
2013-03-05 16:10:00,32.8,23.3,30.00,NE,45,14.1,16.8,68,0.00,,,0.00,WUHU216HW,2013-03-05 21:10:00,
2013-03-05 16:15:00,32.8,23.7,30.00,NE,45,14.5,19.2,69,0.00,,,0.00,WUHU216HW,2013-03-05 21:15:00,
2013-03-05 16:20:00,32.6,23.5,30.00,ENE,68,14.5,19.2,69,0.00,,,0.00,WUHU216HW,2013-03-05 21:20:00,
2013-03-05 16:25:00,32.8,23.7,30.00,NE,45,15.4,18.3,69,0.00,,,0.00,WUHU216HW,2013-03-05 21:25:00,
2013-03-05 16:30:00,32.8,23.7,30.00,NNE,23,11.2,18.3,69,0.00,,,0.00,WUHU216HW,2013-03-05 21:30:00,
2013-03-05 16:35:00,32.9,23.9,30.00,NE,45,15.4,15.7,69,0.00,,,0.00,WUHU216HW,2013-03-05 21:35:00,
2013-03-05 16:40:00,32.8,23.7,30.00,ENE,68,15.0,15.4,69,0.00,,,0.00,WUHU216HW,2013-03-05 21:40:00,
2013-03-05 16:45:00,32.8,23.7,30.00,NE,45,17.0,17.0,69,0.00,,,0.00,WUHU216HW,2013-03-05 21:45:00,
2013-03-05 16:50:00,32.8,23.7,30.00,NNE,23,17.9,17.9,69,0.00,,,0.00,WUHU216HW,2013-03-05 21:50:00,
2013-03-05 16:55:00,32.8,24.0,30.00,NNE,23,13.9,20.8,70,0.00,,,0.00,WUHU216HW,2013-03-05 21:55:00,
2013-03-05 17:00:00,32.8,23.7,30.00,NE,45,13.9,20.8,69,0.00,,,0.00,WUHU216HW,2013-03-05 22:00:00,
2013-03-05 17:05:00,32.8,24.0,30.00,NE,45,13.6,19.0,70,0.00,,,0.00,WUHU216HW,2013-03-05 22:05:00,
2013-03-05 17:10:00,32.8,24.0,30.00,NE,45,12.3,17.2,70,0.00,,,0.00,WUHU216HW,2013-03-05 22:10:00,
2013-03-05 17:15:00,32.6,24.2,29.99,NE,45,15.7,18.6,71,0.00,,,0.00,WUHU216HW,2013-03-05 22:15:00,
2013-03-05 17:20:00,32.6,23.9,30.00,NE,45,18.6,18.6,70,0.00,,,0.00,WUHU216HW,2013-03-05 22:20:00,
2013-03-05 17:25:00,32.6,24.2,30.00,NNE,23,18.8,18.8,71,0.00,,,0.00,WUHU216HW,2013-03-05 22:25:00,
2013-03-05 17:30:00,32.4,24.0,30.00,NNE,23,18.1,18.8,71,0.00,,,0.00,WUHU216HW,2013-03-05 22:30:00,
2013-03-05 17:35:00,32.2,23.9,30.00,NE,45,19.2,19.2,71,0.00,,,0.00,WUHU216HW,2013-03-05 22:35:00,
2013-03-05 17:40:00,32.0,23.8,30.00,ENE,68,14.3,19.9,71,0.00,,,0.00,WUHU216HW,2013-03-05 22:40:00,
2013-03-05 17:45:00,32.0,23.8,30.01,ENE,68,20.1,20.1,71,0.00,,,0.00,WUHU216HW,2013-03-05 22:45:00,
2013-03-05 17:50:00,31.9,23.9,30.01,NNE,23,15.2,20.1,72,0.00,,,0.00,WUHU216HW,2013-03-05 22:50:00,
2013-03-05 17:55:00,31.9,23.9,30.01,NNE,23,15.9,18.6,72,0.00,,,0.00,WUHU216HW,2013-03-05 22:55:00,
2013-03-05 18:00:00,31.7,23.7,30.01,NNE,23,16.1,17.2,72,0.00,,,0.00,WUHU216HW,2013-03-05 23:00:00,
2013-03-05 18:05:00,31.9,24.2,30.01,NE,45,12.1,16.3,73,0.00,,,0.00,WUHU216HW,2013-03-05 23:05:00,
2013-03-05 18:10:00,31.7,24.0,30.02,NE,45,16.6,17.7,73,0.00,,,0.00,WUHU216HW,2013-03-05 23:10:00,
2013-03-05 18:15:00,31.7,24.0,30.02,NNE,23,11.4,17.7,73,0.00,,,0.00,WUHU216HW,2013-03-05 23:15:00,
2013-03-05 18:20:00,31.5,24.1,30.02,NNE,23,12.8,15.4,74,0.00,,,0.00,WUHU216HW,2013-03-05 23:20:00,
2013-03-05 18:25:00,31.3,23.7,30.02,NE,45,17.2,20.1,73,0.00,,,0.00,WUHU216HW,2013-03-05 23:25:00,
2013-03-05 18:30:00,31.3,23.9,30.03,NNE,23,15.0,20.1,74,0.00,,,0.00,WUHU216HW,2013-03-05 23:30:00,
2013-03-05 18:35:00,31.1,23.8,30.03,NNE,23,15.7,19.0,74,0.00,,,0.00,WUHU216HW,2013-03-05 23:35:00,
2013-03-05 18:40:00,31.0,23.6,30.04,North,0,10.1,19.0,74,0.00,,,0.00,WUHU216HW,2013-03-05 23:40:00,
2013-03-05 18:46:00,31.0,23.3,30.04,NE,45,17.2,18.3,73,0.00,,,0.00,WUHU216HW,2013-03-05 23:46:00,
2013-03-05 18:51:00,31.0,23.6,30.04,NNE,23,12.1,17.2,74,0.00,,,0.00,WUHU216HW,2013-03-05 23:51:00,
2013-03-05 18:56:00,31.0,23.6,30.04,NE,45,10.3,16.6,74,0.00,,,0.00,WUHU216HW,2013-03-05 23:56:00,
2013-03-05 19:01:00,30.8,23.4,30.03,NNE,23,16.3,20.6,74,0.00,,,0.00,WUHU216HW,2013-03-06 00:01:00,
2013-03-05 19:06:00,30.8,23.8,30.04,NNE,23,15.0,20.6,75,0.00,,,0.00,WUHU216HW,2013-03-06 00:06:00,
2013-03-05 19:11:00,30.6,23.6,30.04,NE,45,16.3,22.4,75,0.00,,,0.00,WUHU216HW,2013-03-06 00:11:00,
2013-03-05 19:16:00,30.6,24.0,30.04,NNE,23,20.8,22.4,76,0.00,,,0.00,WUHU216HW,2013-03-06 00:16:00,
2013-03-05 19:21:00,30.4,23.8,30.04,NNE,23,17.0,23.0,76,0.00,,,0.00,WUHU216HW,2013-03-06 00:21:00,
2013-03-05 19:26:00,30.2,23.9,30.04,North,0,14.8,23.0,77,0.00,,,0.00,WUHU216HW,2013-03-06 00:26:00,
2013-03-05 19:31:00,30.1,23.7,30.05,NNE,23,15.7,20.6,77,0.00,,,0.00,WUHU216HW,2013-03-06 00:31:00,
2013-03-05 19:36:00,29.9,23.5,30.05,NNE,23,22.8,22.8,77,0.00,,,0.00,WUHU216HW,2013-03-06 00:36:00,
2013-03-05 19:41:00,29.9,23.9,30.05,NE,45,15.0,22.8,78,0.00,,,0.00,WUHU216HW,2013-03-06 00:41:00,
2013-03-05 19:46:00,29.9,23.5,30.04,NNE,23,13.9,19.2,77,0.00,,,0.00,WUHU216HW,2013-03-06 00:46:00,
2013-03-05 19:51:00,29.9,23.9,30.05,NNE,23,15.0,18.6,78,0.00,,,0.00,WUHU216HW,2013-03-06 00:51:00,
2013-03-05 19:56:00,29.7,23.7,30.04,North,0,16.1,18.1,78,0.00,,,0.00,WUHU216HW,2013-03-06 00:56:00,
2013-03-05 20:01:00,29.5,23.5,30.04,NNE,23,17.0,20.1,78,0.00,,,0.00,WUHU216HW,2013-03-06 01:01:00,
2013-03-05 20:06:00,29.2,23.5,30.04,NE,45,13.0,24.2,79,0.00,,,0.00,WUHU216HW,2013-03-06 01:06:00,
2013-03-05 20:11:00,29.2,23.5,30.04,NNE,23,19.7,24.2,79,0.00,,,0.00,WUHU216HW,2013-03-06 01:11:00,
2013-03-05 20:16:00,29.2,23.5,30.04,NNE,23,18.6,25.3,79,0.00,,,0.00,WUHU216HW,2013-03-06 01:16:00,
2013-03-05 20:21:00,29.2,23.5,30.04,NE,45,17.9,25.3,79,0.00,,,0.00,WUHU216HW,2013-03-06 01:21:00,
2013-03-05 20:26:00,29.2,23.5,30.04,NNE,23,15.7,18.6,79,0.00,,,0.00,WUHU216HW,2013-03-06 01:26:00,
2013-03-05 20:31:00,29.0,23.3,30.04,NNE,23,16.3,18.6,79,0.00,,,0.00,WUHU216HW,2013-03-06 01:31:00,
2013-03-05 20:36:00,28.8,23.1,30.05,NE,45,13.0,18.6,79,0.00,,,0.00,WUHU216HW,2013-03-06 01:36:00,
2013-03-05 20:41:00,28.8,23.1,30.04,NNE,23,12.8,19.2,79,0.00,,,0.00,WUHU216HW,2013-03-06 01:41:00,
2013-03-05 20:46:00,28.8,23.4,30.04,NNE,23,15.0,19.2,80,0.00,,,0.00,WUHU216HW,2013-03-06 01:46:00,
2013-03-05 20:51:00,29.0,23.3,30.04,ENE,68,18.6,22.4,79,0.00,,,0.00,WUHU216HW,2013-03-06 01:51:00,
2013-03-05 20:56:00,28.8,23.1,30.04,NE,45,21.5,24.6,79,0.00,,,0.00,WUHU216HW,2013-03-06 01:56:00,
2013-03-05 21:01:00,28.6,23.0,30.04,NNE,23,20.1,24.6,79,0.00,,,0.00,WUHU216HW,2013-03-06 02:01:00,
2013-03-05 21:06:00,28.6,23.2,30.04,NNE,23,17.0,20.1,80,0.00,,,0.00,WUHU216HW,2013-03-06 02:06:00,
2013-03-05 21:11:00,28.4,23.0,30.04,NNE,23,22.1,25.3,80,0.00,,,0.00,WUHU216HW,2013-03-06 02:11:00,
2013-03-05 21:16:00,28.4,23.0,30.05,NNE,23,20.1,25.3,80,0.00,,,0.00,WUHU216HW,2013-03-06 02:16:00,
2013-03-05 21:21:00,28.3,22.9,30.05,NE,45,18.6,23.3,80,0.00,,,0.00,WUHU216HW,2013-03-06 02:21:00,
2013-03-05 21:26:00,28.3,23.1,30.05,NNE,23,15.7,23.0,81,0.00,,,0.00,WUHU216HW,2013-03-06 02:26:00,
2013-03-05 21:31:00,28.3,22.9,30.05,NNE,23,19.7,25.9,80,0.00,,,0.00,WUHU216HW,2013-03-06 02:31:00,
2013-03-05 21:36:00,28.3,23.1,30.05,NNE,23,15.9,25.9,81,0.00,,,0.00,WUHU216HW,2013-03-06 02:36:00,
2013-03-05 21:41:00,28.1,23.0,30.05,NNE,23,18.1,23.7,81,0.00,,,0.00,WUHU216HW,2013-03-06 02:41:00,
2013-03-05 21:46:00,28.1,23.0,30.05,NNE,23,24.4,24.4,81,0.00,,,0.00,WUHU216HW,2013-03-06 02:46:00,
2013-03-05 21:51:00,28.1,23.2,30.06,ENE,68,22.6,24.4,82,0.00,,,0.00,WUHU216HW,2013-03-06 02:51:00,
2013-03-05 21:56:00,28.1,23.2,30.06,NE,45,21.7,22.6,82,0.00,,,0.00,WUHU216HW,2013-03-06 02:56:00,
2013-03-05 22:01:00,27.9,23.0,30.06,NNE,23,21.5,22.8,82,0.00,,,0.00,WUHU216HW,2013-03-06 03:01:00,
2013-03-05 22:06:00,27.9,23.4,30.06,NE,45,19.0,23.3,83,0.00,,,0.00,WUHU216HW,2013-03-06 03:06:00,
2013-03-05 22:11:00,27.7,23.2,30.06,North,0,21.5,23.3,83,0.00,,,0.00,WUHU216HW,2013-03-06 03:11:00,
2013-03-05 22:16:00,27.7,23.2,30.06,NE,45,18.6,22.4,83,0.00,,,0.00,WUHU216HW,2013-03-06 03:16:00,
2013-03-05 22:21:00,27.7,23.2,30.06,NNE,23,22.8,22.8,83,0.00,,,0.00,WUHU216HW,2013-03-06 03:21:00,
2013-03-05 22:26:00,27.7,23.2,30.07,NE,45,19.7,22.8,83,0.00,,,0.00,WUHU216HW,2013-03-06 03:26:00,
2013-03-05 22:31:00,27.7,23.5,30.07,NE,45,17.4,22.8,84,0.00,,,0.00,WUHU216HW,2013-03-06 03:31:00,
2013-03-05 22:36:00,27.7,23.2,30.07,NE,45,17.9,22.8,83,0.00,,,0.00,WUHU216HW,2013-03-06 03:36:00,
2013-03-05 22:41:00,27.7,23.2,30.07,NE,45,21.5,22.4,83,0.00,,,0.00,WUHU216HW,2013-03-06 03:41:00,
2013-03-05 22:46:00,27.7,23.2,30.07,ENE,68,13.6,21.5,83,0.00,,,0.00,WUHU216HW,2013-03-06 03:46:00,
2013-03-05 22:51:00,27.5,23.1,30.07,NNE,23,19.9,23.3,83,0.00,,,0.00,WUHU216HW,2013-03-06 03:51:00,
2013-03-05 22:56:00,27.5,23.1,30.07,NE,45,18.1,23.3,83,0.00,,,0.00,WUHU216HW,2013-03-06 03:56:00,
2013-03-05 23:01:00,27.5,23.3,30.07,North,0,23.7,23.7,84,0.00,,,0.00,WUHU216HW,2013-03-06 04:01:00,
2013-03-05 23:06:00,27.5,23.1,30.07,NNE,23,18.6,23.7,83,0.00,,,0.00,WUHU216HW,2013-03-06 04:06:00,
2013-03-05 23:11:00,27.5,23.1,30.08,NE,45,16.1,20.6,83,0.00,,,0.00,WUHU216HW,2013-03-06 04:11:00,
2013-03-05 23:16:00,27.5,23.1,30.08,NNE,23,23.0,25.9,83,0.00,,,0.00,WUHU216HW,2013-03-06 04:16:00,
2013-03-05 23:21:00,27.4,22.9,30.08,NE,45,16.8,27.3,83,0.00,,,0.00,WUHU216HW,2013-03-06 04:21:00,
2013-03-05 23:26:00,27.4,23.1,30.08,NNE,23,18.8,27.3,84,0.00,,,0.00,WUHU216HW,2013-03-06 04:26:00,
2013-03-05 23:31:00,27.4,22.9,30.08,NE,45,18.3,23.0,83,0.00,,,0.00,WUHU216HW,2013-03-06 04:31:00,
2013-03-05 23:36:00,27.4,22.9,30.08,North,0,21.5,28.0,83,0.00,,,0.00,WUHU216HW,2013-03-06 04:36:00,
2013-03-05 23:41:00,27.2,22.7,30.08,NNE,23,20.4,28.0,83,0.00,,,0.00,WUHU216HW,2013-03-06 04:41:00,
2013-03-05 23:46:00,27.2,22.7,30.08,NE,45,18.8,28.2,83,0.00,,,0.00,WUHU216HW,2013-03-06 04:46:00,
2013-03-05 23:51:00,27.2,22.7,30.09,NNE,23,16.3,28.2,83,0.00,,,0.00,WUHU216HW,2013-03-06 04:51:00,
2013-03-05 23:56:00,27.2,22.7,30.08,NE,45,15.9,21.5,83,0.00,,,0.00,WUHU216HW,2013-03-06 04:56:00,